Messwerte Hoqiam

Temperatur

Temperatur
°C
1615053600 10.00 10.00 9
1615057200 11.00 11.00 9
1615060800 12.00 12.00 9
1615064400 13.00 13.00 9
1615068000 14.00 14.00 10
1615071600 15.00 15.00 9
1615075200 16.00 16.00 8
1615078800 17.00 17.00 8
1615082400 18.00 18.00 8
1615086000 19.00 19.00 7
1615089600 20.00 20.00 7
1615093200 21.00 21.00 7
1615096800 22.00 22.00 7
1615100400 23.00 23.00 6
1615104000 0.00 0.00 7
1615107600 1.00 1.00
1615111200 2.00 2.00 6
1615114800 3.00 3.00 5
1615118400 4.00 4.00 6
1615122000 5.00 5.00
1615125600 6.00 6.00 5
1615129200 7.00 7.00
1615132800 8.00 8.00 4
1615136400 9.00 9.00 5

Aktuellste Messwerte

Wettercharakter
Wetter: wechselnd bewölkt
Temperatur
6 °C
Feuchtigkeit
85 %
Wind
20 km/hWindrichtung: Südwest
Luftdruck
1017 hPa
Messzeit: 7. März 2021, 10.00Datenquelle: METAR

Weitere Messstationen in der Nähe

Messstation Temperatur Entfernung
Shelton 4 °C 67 km
Olympia 5 °C 78 km
Astoria 7 °C 90 km
Fort Lewis 6 °C 106 km
Tacoma 4 °C 107 km
Bremerton 4 °C 107 km
Tacoma 6 °C 112 km

Wind

Windrichtung Böen Mittelwind
° km/h km/h
1615053600 10.00 9.00 - 10.00 230° 25
1615057200 11.00 10.00 - 11.00 220° 20
1615060800 12.00 11.00 - 12.00 190° 15
1615064400 13.00 12.00 - 13.00 200° 20
1615068000 14.00 13.00 - 14.00 210° 30
1615071600 15.00 14.00 - 15.00 210° 30
1615075200 16.00 15.00 - 16.00 180° 10
1615078800 17.00 16.00 - 17.00 180° 15
1615082400 18.00 17.00 - 18.00 150° 20
1615086000 19.00 18.00 - 19.00 160° 20
1615089600 20.00 19.00 - 20.00 120° 20
1615093200 21.00 20.00 - 21.00 90° 15
1615096800 22.00 21.00 - 22.00 110° 35 25
1615100400 23.00 22.00 - 23.00 100° 20
1615104000 0.00 23.00 - 0.00 80° 20
1615107600 1.00 0.00 - 1.00
1615111200 2.00 1.00 - 2.00 180° 45 30
1615114800 3.00 2.00 - 3.00 180° 35 30
1615118400 4.00 3.00 - 4.00 160° 25
1615122000 5.00 4.00 - 5.00
1615125600 6.00 5.00 - 6.00 160° 20
1615129200 7.00 6.00 - 7.00
1615132800 8.00 7.00 - 8.00 140° 20
1615136400 9.00 8.00 - 9.00 180° 15

Ihre Wetterstation

Fehlt Ihre Wetterstation auf unserem Portal?

Schreiben Sie an network@meteonews.ch

Klima

Wann ist es am wärmsten? Wann regnet es am wenigsten? Unsere Klimadaten geben Auskunft.